sensor_id;sensor_type;location;lat;lon;timestamp;P1;durP1;ratioP1;P2;durP2;ratioP2
1428;SDS011;708;51.442;7.016;2024-02-16T00:01:49;5.15;;;4.95;;
1428;SDS011;708;51.442;7.016;2024-02-16T00:04:15;5.75;;;5.55;;
1428;SDS011;708;51.442;7.016;2024-02-16T00:06:42;4.55;;;4.35;;
1428;SDS011;708;51.442;7.016;2024-02-16T00:09:09;6.13;;;5.82;;
1428;SDS011;708;51.442;7.016;2024-02-16T00:11:36;4.93;;;4.72;;
1428;SDS011;708;51.442;7.016;2024-02-16T00:14:03;4.90;;;4.70;;
1428;SDS011;708;51.442;7.016;2024-02-16T00:16:31;4.60;;;4.40;;
1428;SDS011;708;51.442;7.016;2024-02-16T00:18:57;4.93;;;4.72;;
1428;SDS011;708;51.442;7.016;2024-02-16T00:21:24;4.85;;;4.65;;
1428;SDS011;708;51.442;7.016;2024-02-16T00:23:51;5.28;;;5.07;;
1428;SDS011;708;51.442;7.016;2024-02-16T00:26:18;6.18;;;5.78;;
1428;SDS011;708;51.442;7.016;2024-02-16T00:28:46;4.35;;;4.15;;
1428;SDS011;708;51.442;7.016;2024-02-16T00:31:13;4.90;;;4.70;;
1428;SDS011;708;51.442;7.016;2024-02-16T00:33:41;4.75;;;4.55;;
1428;SDS011;708;51.442;7.016;2024-02-16T00:36:08;5.25;;;5.05;;
1428;SDS011;708;51.442;7.016;2024-02-16T00:38:35;4.60;;;4.40;;
1428;SDS011;708;51.442;7.016;2024-02-16T00:41:02;3.97;;;3.78;;
1428;SDS011;708;51.442;7.016;2024-02-16T00:43:29;4.82;;;4.63;;
1428;SDS011;708;51.442;7.016;2024-02-16T00:45:56;4.38;;;4.18;;
1428;SDS011;708;51.442;7.016;2024-02-16T00:48:23;5.82;;;5.53;;
1428;SDS011;708;51.442;7.016;2024-02-16T00:50:51;4.75;;;4.55;;
1428;SDS011;708;51.442;7.016;2024-02-16T00:53:18;4.07;;;3.88;;
1428;SDS011;708;51.442;7.016;2024-02-16T00:55:45;5.00;;;4.80;;
1428;SDS011;708;51.442;7.016;2024-02-16T00:58:12;4.40;;;4.20;;
1428;SDS011;708;51.442;7.016;2024-02-16T01:00:38;6.03;;;5.82;;
1428;SDS011;708;51.442;7.016;2024-02-16T01:03:05;5.03;;;4.82;;
1428;SDS011;708;51.442;7.016;2024-02-16T01:05:32;5.93;;;5.72;;
1428;SDS011;708;51.442;7.016;2024-02-16T01:08:02;5.75;;;5.55;;
1428;SDS011;708;51.442;7.016;2024-02-16T01:10:29;4.95;;;4.75;;
1428;SDS011;708;51.442;7.016;2024-02-16T01:12:55;6.50;;;6.20;;
1428;SDS011;708;51.442;7.016;2024-02-16T01:15:22;5.25;;;5.05;;
1428;SDS011;708;51.442;7.016;2024-02-16T01:17:49;5.13;;;4.93;;
1428;SDS011;708;51.442;7.016;2024-02-16T01:20:16;5.15;;;4.95;;
1428;SDS011;708;51.442;7.016;2024-02-16T01:22:42;5.82;;;5.63;;
1428;SDS011;708;51.442;7.016;2024-02-16T01:25:11;6.82;;;5.88;;
1428;SDS011;708;51.442;7.016;2024-02-16T01:27:37;5.85;;;5.65;;
1428;SDS011;708;51.442;7.016;2024-02-16T01:30:06;5.40;;;5.20;;
1428;SDS011;708;51.442;7.016;2024-02-16T01:32:33;4.65;;;4.45;;
1428;SDS011;708;51.442;7.016;2024-02-16T01:35:00;4.53;;;4.32;;
1428;SDS011;708;51.442;7.016;2024-02-16T01:37:27;5.10;;;4.90;;
1428;SDS011;708;51.442;7.016;2024-02-16T01:39:54;5.55;;;5.35;;
1428;SDS011;708;51.442;7.016;2024-02-16T01:42:22;5.40;;;5.00;;
1428;SDS011;708;51.442;7.016;2024-02-16T01:44:49;4.85;;;4.65;;
1428;SDS011;708;51.442;7.016;2024-02-16T01:47:16;5.05;;;4.85;;
1428;SDS011;708;51.442;7.016;2024-02-16T01:49:45;5.72;;;5.53;;
1428;SDS011;708;51.442;7.016;2024-02-16T01:52:12;4.88;;;4.68;;
1428;SDS011;708;51.442;7.016;2024-02-16T01:54:39;5.38;;;5.18;;
1428;SDS011;708;51.442;7.016;2024-02-16T01:57:06;6.63;;;5.97;;
1428;SDS011;708;51.442;7.016;2024-02-16T01:59:35;5.15;;;4.95;;
1428;SDS011;708;51.442;7.016;2024-02-16T02:02:02;5.07;;;4.88;;
1428;SDS011;708;51.442;7.016;2024-02-16T02:04:28;4.40;;;4.20;;
1428;SDS011;708;51.442;7.016;2024-02-16T02:06:55;4.60;;;4.40;;
1428;SDS011;708;51.442;7.016;2024-02-16T02:09:22;5.13;;;4.93;;
1428;SDS011;708;51.442;7.016;2024-02-16T02:11:49;4.72;;;4.53;;
1428;SDS011;708;51.442;7.016;2024-02-16T02:14:17;4.50;;;4.30;;
1428;SDS011;708;51.442;7.016;2024-02-16T02:16:45;5.00;;;4.80;;
1428;SDS011;708;51.442;7.016;2024-02-16T02:19:12;4.90;;;4.70;;
1428;SDS011;708;51.442;7.016;2024-02-16T02:21:38;4.57;;;4.38;;
1428;SDS011;708;51.442;7.016;2024-02-16T02:24:07;4.60;;;4.40;;
1428;SDS011;708;51.442;7.016;2024-02-16T02:26:34;5.10;;;4.90;;
1428;SDS011;708;51.442;7.016;2024-02-16T02:29:01;4.55;;;4.35;;
1428;SDS011;708;51.442;7.016;2024-02-16T02:31:27;4.15;;;3.95;;
1428;SDS011;708;51.442;7.016;2024-02-16T02:33:54;4.72;;;4.53;;
1428;SDS011;708;51.442;7.016;2024-02-16T02:36:21;5.03;;;4.82;;
1428;SDS011;708;51.442;7.016;2024-02-16T02:38:48;5.15;;;4.95;;
1428;SDS011;708;51.442;7.016;2024-02-16T02:41:17;4.82;;;4.63;;
1428;SDS011;708;51.442;7.016;2024-02-16T02:43:45;4.30;;;4.10;;
1428;SDS011;708;51.442;7.016;2024-02-16T02:46:14;4.80;;;4.60;;
1428;SDS011;708;51.442;7.016;2024-02-16T02:48:41;5.32;;;5.13;;
1428;SDS011;708;51.442;7.016;2024-02-16T02:51:08;5.25;;;5.05;;
1428;SDS011;708;51.442;7.016;2024-02-16T02:53:35;4.22;;;4.03;;
1428;SDS011;708;51.442;7.016;2024-02-16T02:56:02;4.68;;;4.47;;
1428;SDS011;708;51.442;7.016;2024-02-16T02:58:31;4.43;;;4.22;;
1428;SDS011;708;51.442;7.016;2024-02-16T03:00:58;4.97;;;4.78;;
1428;SDS011;708;51.442;7.016;2024-02-16T03:03:25;4.60;;;4.40;;
1428;SDS011;708;51.442;7.016;2024-02-16T03:05:51;5.65;;;5.45;;
1428;SDS011;708;51.442;7.016;2024-02-16T03:08:18;4.95;;;4.75;;
1428;SDS011;708;51.442;7.016;2024-02-16T03:10:45;4.78;;;4.57;;
1428;SDS011;708;51.442;7.016;2024-02-16T03:13:12;4.45;;;4.25;;
1428;SDS011;708;51.442;7.016;2024-02-16T03:15:40;4.25;;;4.05;;
1428;SDS011;708;51.442;7.016;2024-02-16T03:18:07;4.65;;;4.45;;
1428;SDS011;708;51.442;7.016;2024-02-16T03:20:34;4.63;;;4.43;;
1428;SDS011;708;51.442;7.016;2024-02-16T03:23:01;4.50;;;4.30;;
1428;SDS011;708;51.442;7.016;2024-02-16T03:25:28;4.57;;;4.38;;
1428;SDS011;708;51.442;7.016;2024-02-16T03:27:54;4.95;;;4.75;;
1428;SDS011;708;51.442;7.016;2024-02-16T03:30:21;6.00;;;5.80;;
1428;SDS011;708;51.442;7.016;2024-02-16T03:32:49;5.20;;;5.00;;
1428;SDS011;708;51.442;7.016;2024-02-16T03:35:17;4.93;;;4.72;;
1428;SDS011;708;51.442;7.016;2024-02-16T03:37:43;5.60;;;5.38;;
1428;SDS011;708;51.442;7.016;2024-02-16T03:40:11;5.55;;;5.35;;
1428;SDS011;708;51.442;7.016;2024-02-16T03:42:38;4.75;;;4.55;;
1428;SDS011;708;51.442;7.016;2024-02-16T03:45:06;5.97;;;5.78;;
1428;SDS011;708;51.442;7.016;2024-02-16T03:47:33;5.90;;;5.70;;
1428;SDS011;708;51.442;7.016;2024-02-16T03:50:01;5.55;;;5.35;;
1428;SDS011;708;51.442;7.016;2024-02-16T03:52:28;4.90;;;4.70;;
1428;SDS011;708;51.442;7.016;2024-02-16T03:54:55;5.20;;;5.00;;
1428;SDS011;708;51.442;7.016;2024-02-16T03:57:22;5.25;;;5.05;;
1428;SDS011;708;51.442;7.016;2024-02-16T03:59:49;4.88;;;4.68;;
1428;SDS011;708;51.442;7.016;2024-02-16T04:02:15;5.40;;;5.20;;
1428;SDS011;708;51.442;7.016;2024-02-16T04:04:43;5.15;;;4.95;;
1428;SDS011;708;51.442;7.016;2024-02-16T04:07:11;4.80;;;4.60;;
1428;SDS011;708;51.442;7.016;2024-02-16T04:09:38;5.03;;;4.82;;
1428;SDS011;708;51.442;7.016;2024-02-16T04:12:05;5.35;;;5.15;;
1428;SDS011;708;51.442;7.016;2024-02-16T04:14:32;5.22;;;5.03;;
1428;SDS011;708;51.442;7.016;2024-02-16T04:16:59;5.07;;;4.88;;
1428;SDS011;708;51.442;7.016;2024-02-16T04:19:26;5.55;;;5.35;;
1428;SDS011;708;51.442;7.016;2024-02-16T04:21:53;5.00;;;4.80;;
1428;SDS011;708;51.442;7.016;2024-02-16T04:24:21;4.97;;;4.78;;
1428;SDS011;708;51.442;7.016;2024-02-16T04:26:48;5.53;;;5.32;;
1428;SDS011;708;51.442;7.016;2024-02-16T04:29:14;4.80;;;4.60;;
1428;SDS011;708;51.442;7.016;2024-02-16T04:31:41;5.80;;;5.32;;
1428;SDS011;708;51.442;7.016;2024-02-16T04:34:13;5.32;;;5.13;;
1428;SDS011;708;51.442;7.016;2024-02-16T04:36:40;5.15;;;4.95;;
1428;SDS011;708;51.442;7.016;2024-02-16T04:39:08;6.53;;;6.25;;
1428;SDS011;708;51.442;7.016;2024-02-16T04:41:38;5.70;;;5.50;;
1428;SDS011;708;51.442;7.016;2024-02-16T04:44:05;5.38;;;5.18;;
1428;SDS011;708;51.442;7.016;2024-02-16T04:46:31;5.93;;;5.72;;
1428;SDS011;708;51.442;7.016;2024-02-16T04:49:01;5.90;;;5.70;;
1428;SDS011;708;51.442;7.016;2024-02-16T04:51:31;6.15;;;5.95;;
1428;SDS011;708;51.442;7.016;2024-02-16T04:53:58;5.47;;;5.28;;
1428;SDS011;708;51.442;7.016;2024-02-16T04:56:24;6.28;;;6.07;;
1428;SDS011;708;51.442;7.016;2024-02-16T04:58:52;6.90;;;6.63;;
1428;SDS011;708;51.442;7.016;2024-02-16T05:01:19;6.05;;;5.70;;
1428;SDS011;708;51.442;7.016;2024-02-16T05:03:49;7.18;;;6.88;;
1428;SDS011;708;51.442;7.016;2024-02-16T05:06:16;7.90;;;7.60;;
1428;SDS011;708;51.442;7.016;2024-02-16T05:08:43;7.03;;;6.75;;
1428;SDS011;708;51.442;7.016;2024-02-16T05:11:09;6.72;;;6.53;;
1428;SDS011;708;51.442;7.016;2024-02-16T05:13:36;7.40;;;7.10;;
1428;SDS011;708;51.442;7.016;2024-02-16T05:16:08;7.32;;;7.03;;
1428;SDS011;708;51.442;7.016;2024-02-16T05:18:36;6.88;;;6.68;;
1428;SDS011;708;51.442;7.016;2024-02-16T05:21:03;7.20;;;6.90;;
1428;SDS011;708;51.442;7.016;2024-02-16T05:23:30;7.43;;;7.13;;
1428;SDS011;708;51.442;7.016;2024-02-16T05:25:57;7.32;;;7.03;;
1428;SDS011;708;51.442;7.016;2024-02-16T05:28:24;6.70;;;6.50;;
1428;SDS011;708;51.442;7.016;2024-02-16T05:30:50;7.18;;;6.88;;
1428;SDS011;708;51.442;7.016;2024-02-16T05:33:19;7.97;;;7.57;;
1428;SDS011;708;51.442;7.016;2024-02-16T05:35:46;7.07;;;6.78;;
1428;SDS011;708;51.442;7.016;2024-02-16T05:38:19;6.82;;;6.53;;
1428;SDS011;708;51.442;7.016;2024-02-16T05:40:57;6.43;;;6.13;;
1428;SDS011;708;51.442;7.016;2024-02-16T05:43:23;5.95;;;5.75;;
1428;SDS011;708;51.442;7.016;2024-02-16T05:45:50;6.85;;;6.65;;
1428;SDS011;708;51.442;7.016;2024-02-16T05:48:19;6.78;;;6.57;;
1428;SDS011;708;51.442;7.016;2024-02-16T05:50:46;7.18;;;6.90;;
1428;SDS011;708;51.442;7.016;2024-02-16T05:53:13;7.03;;;6.72;;
1428;SDS011;708;51.442;7.016;2024-02-16T05:55:40;6.80;;;6.55;;
1428;SDS011;708;51.442;7.016;2024-02-16T05:58:09;6.38;;;6.18;;
1428;SDS011;708;51.442;7.016;2024-02-16T06:00:37;6.32;;;6.13;;
1428;SDS011;708;51.442;7.016;2024-02-16T06:03:04;6.30;;;6.10;;
1428;SDS011;708;51.442;7.016;2024-02-16T06:05:32;6.93;;;6.53;;
1428;SDS011;708;51.442;7.016;2024-02-16T06:07:59;7.35;;;7.05;;
1428;SDS011;708;51.442;7.016;2024-02-16T06:10:26;6.45;;;6.25;;
1428;SDS011;708;51.442;7.016;2024-02-16T06:12:52;5.20;;;5.00;;
1428;SDS011;708;51.442;7.016;2024-02-16T06:15:19;6.53;;;6.32;;
1428;SDS011;708;51.442;7.016;2024-02-16T06:17:47;7.68;;;7.38;;
1428;SDS011;708;51.442;7.016;2024-02-16T06:20:14;7.45;;;7.15;;
1428;SDS011;708;51.442;7.016;2024-02-16T06:22:42;7.57;;;7.28;;
1428;SDS011;708;51.442;7.016;2024-02-16T06:25:09;7.82;;;7.53;;
1428;SDS011;708;51.442;7.016;2024-02-16T06:27:36;6.35;;;6.15;;
1428;SDS011;708;51.442;7.016;2024-02-16T06:30:03;6.40;;;6.10;;
1428;SDS011;708;51.442;7.016;2024-02-16T06:32:32;7.35;;;7.05;;
1428;SDS011;708;51.442;7.016;2024-02-16T06:34:59;7.65;;;7.30;;
1428;SDS011;708;51.442;7.016;2024-02-16T06:37:25;7.60;;;7.30;;
1428;SDS011;708;51.442;7.016;2024-02-16T06:39:53;7.35;;;7.05;;
1428;SDS011;708;51.442;7.016;2024-02-16T06:42:20;7.47;;;7.18;;
1428;SDS011;708;51.442;7.016;2024-02-16T06:44:47;7.45;;;6.97;;
1428;SDS011;708;51.442;7.016;2024-02-16T06:47:14;7.15;;;6.85;;
1428;SDS011;708;51.442;7.016;2024-02-16T06:49:41;6.35;;;6.15;;
1428;SDS011;708;51.442;7.016;2024-02-16T06:52:08;6.68;;;6.47;;
1428;SDS011;708;51.442;7.016;2024-02-16T06:54:35;8.90;;;8.60;;
1428;SDS011;708;51.442;7.016;2024-02-16T06:57:03;6.53;;;6.32;;
1428;SDS011;708;51.442;7.016;2024-02-16T06:59:30;5.57;;;5.38;;
1428;SDS011;708;51.442;7.016;2024-02-16T07:01:57;7.05;;;6.82;;
1428;SDS011;708;51.442;7.016;2024-02-16T07:04:24;8.93;;;8.43;;
1428;SDS011;708;51.442;7.016;2024-02-16T07:06:50;6.45;;;6.25;;
1428;SDS011;708;51.442;7.016;2024-02-16T07:09:17;8.02;;;7.72;;
1428;SDS011;708;51.442;7.016;2024-02-16T07:11:44;7.72;;;7.43;;
1428;SDS011;708;51.442;7.016;2024-02-16T07:14:12;7.30;;;6.90;;
1428;SDS011;708;51.442;7.016;2024-02-16T07:16:39;7.45;;;7.15;;
1428;SDS011;708;51.442;7.016;2024-02-16T07:19:06;8.02;;;7.72;;
1428;SDS011;708;51.442;7.016;2024-02-16T07:21:33;7.40;;;7.10;;
1428;SDS011;708;51.442;7.016;2024-02-16T07:24:00;8.55;;;8.25;;
1428;SDS011;708;51.442;7.016;2024-02-16T07:26:27;7.18;;;6.90;;
1428;SDS011;708;51.442;7.016;2024-02-16T07:28:54;7.30;;;7.00;;
1428;SDS011;708;51.442;7.016;2024-02-16T07:31:22;8.23;;;7.93;;
1428;SDS011;708;51.442;7.016;2024-02-16T07:33:49;6.45;;;6.25;;
1428;SDS011;708;51.442;7.016;2024-02-16T07:36:16;6.63;;;6.43;;
1428;SDS011;708;51.442;7.016;2024-02-16T07:38:44;8.52;;;8.07;;
1428;SDS011;708;51.442;7.016;2024-02-16T07:41:11;6.10;;;5.90;;
1428;SDS011;708;51.442;7.016;2024-02-16T07:43:37;7.15;;;6.85;;
1428;SDS011;708;51.442;7.016;2024-02-16T07:46:04;7.63;;;7.32;;
1428;SDS011;708;51.442;7.016;2024-02-16T07:48:34;7.63;;;7.32;;
1428;SDS011;708;51.442;7.016;2024-02-16T07:51:01;8.35;;;8.05;;
1428;SDS011;708;51.442;7.016;2024-02-16T07:53:29;7.10;;;6.80;;
1428;SDS011;708;51.442;7.016;2024-02-16T07:55:56;8.63;;;8.32;;
1428;SDS011;708;51.442;7.016;2024-02-16T07:58:23;8.15;;;7.85;;
1428;SDS011;708;51.442;7.016;2024-02-16T08:00:50;7.38;;;7.07;;
1428;SDS011;708;51.442;7.016;2024-02-16T08:03:17;7.30;;;7.00;;
1428;SDS011;708;51.442;7.016;2024-02-16T08:05:45;8.63;;;8.32;;
1428;SDS011;708;51.442;7.016;2024-02-16T08:08:12;8.27;;;7.97;;
1428;SDS011;708;51.442;7.016;2024-02-16T08:10:39;7.90;;;7.60;;
1428;SDS011;708;51.442;7.016;2024-02-16T08:13:05;7.93;;;7.63;;
1428;SDS011;708;51.442;7.016;2024-02-16T08:15:32;8.57;;;8.10;;
1428;SDS011;708;51.442;7.016;2024-02-16T08:17:59;8.60;;;8.30;;
1428;SDS011;708;51.442;7.016;2024-02-16T08:20:26;7.97;;;7.68;;
1428;SDS011;708;51.442;7.016;2024-02-16T08:22:54;8.18;;;7.88;;
1428;SDS011;708;51.442;7.016;2024-02-16T08:25:21;9.10;;;8.80;;
1428;SDS011;708;51.442;7.016;2024-02-16T08:27:48;7.68;;;7.38;;
1428;SDS011;708;51.442;7.016;2024-02-16T08:30:15;8.45;;;8.15;;
1428;SDS011;708;51.442;7.016;2024-02-16T08:32:42;7.50;;;7.20;;
1428;SDS011;708;51.442;7.016;2024-02-16T08:35:09;8.35;;;8.05;;
1428;SDS011;708;51.442;7.016;2024-02-16T08:37:39;8.40;;;8.10;;
1428;SDS011;708;51.442;7.016;2024-02-16T08:40:08;8.23;;;7.93;;
1428;SDS011;708;51.442;7.016;2024-02-16T08:42:39;8.50;;;8.20;;
1428;SDS011;708;51.442;7.016;2024-02-16T08:45:06;7.82;;;7.43;;
1428;SDS011;708;51.442;7.016;2024-02-16T08:47:34;8.98;;;8.57;;
1428;SDS011;708;51.442;7.016;2024-02-16T08:50:00;8.55;;;8.25;;
1428;SDS011;708;51.442;7.016;2024-02-16T08:52:27;7.00;;;6.75;;
1428;SDS011;708;51.442;7.016;2024-02-16T08:54:54;8.55;;;8.25;;
1428;SDS011;708;51.442;7.016;2024-02-16T08:57:22;8.15;;;7.85;;
1428;SDS011;708;51.442;7.016;2024-02-16T08:59:49;10.30;;;9.90;;
1428;SDS011;708;51.442;7.016;2024-02-16T09:02:16;8.15;;;7.85;;
1428;SDS011;708;51.442;7.016;2024-02-16T09:04:42;8.05;;;7.75;;
1428;SDS011;708;51.442;7.016;2024-02-16T09:07:09;8.55;;;8.25;;
1428;SDS011;708;51.442;7.016;2024-02-16T09:09:36;9.50;;;9.10;;
1428;SDS011;708;51.442;7.016;2024-02-16T09:12:03;7.88;;;7.57;;
1428;SDS011;708;51.442;7.016;2024-02-16T09:14:31;7.55;;;7.25;;
1428;SDS011;708;51.442;7.016;2024-02-16T09:16:58;9.30;;;8.85;;
1428;SDS011;708;51.442;7.016;2024-02-16T09:19:25;9.25;;;8.95;;
1428;SDS011;708;51.442;7.016;2024-02-16T09:21:52;9.23;;;8.93;;
1428;SDS011;708;51.442;7.016;2024-02-16T09:24:19;7.45;;;7.15;;
1428;SDS011;708;51.442;7.016;2024-02-16T09:26:46;8.05;;;7.75;;
1428;SDS011;708;51.442;7.016;2024-02-16T09:29:13;7.30;;;7.00;;
1428;SDS011;708;51.442;7.016;2024-02-16T09:31:41;9.65;;;9.25;;
1428;SDS011;708;51.442;7.016;2024-02-16T09:34:08;8.40;;;8.10;;
1428;SDS011;708;51.442;7.016;2024-02-16T09:36:35;7.53;;;7.22;;
1428;SDS011;708;51.442;7.016;2024-02-16T09:39:02;8.43;;;8.13;;
1428;SDS011;708;51.442;7.016;2024-02-16T09:41:32;10.05;;;9.45;;
1428;SDS011;708;51.442;7.016;2024-02-16T09:44:01;9.75;;;9.45;;
1428;SDS011;708;51.442;7.016;2024-02-16T09:46:28;9.63;;;9.32;;
1428;SDS011;708;51.442;7.016;2024-02-16T09:48:58;9.10;;;8.80;;
1428;SDS011;708;51.442;7.016;2024-02-16T09:51:28;9.90;;;9.50;;
1428;SDS011;708;51.442;7.016;2024-02-16T09:53:57;8.65;;;8.35;;
1428;SDS011;708;51.442;7.016;2024-02-16T09:56:25;9.30;;;8.90;;
1428;SDS011;708;51.442;7.016;2024-02-16T09:58:53;9.30;;;9.00;;
1428;SDS011;708;51.442;7.016;2024-02-16T10:01:22;9.18;;;8.88;;
1428;SDS011;708;51.442;7.016;2024-02-16T10:03:49;9.70;;;9.40;;
1428;SDS011;708;51.442;7.016;2024-02-16T10:06:18;9.73;;;9.43;;
1428;SDS011;708;51.442;7.016;2024-02-16T10:08:47;9.88;;;9.48;;
1428;SDS011;708;51.442;7.016;2024-02-16T10:11:15;9.82;;;9.43;;
1428;SDS011;708;51.442;7.016;2024-02-16T10:13:44;9.02;;;8.73;;
1428;SDS011;708;51.442;7.016;2024-02-16T10:16:20;9.45;;;9.05;;
1428;SDS011;708;51.442;7.016;2024-02-16T10:18:47;8.85;;;8.55;;
1428;SDS011;708;51.442;7.016;2024-02-16T10:21:23;7.50;;;7.20;;
1428;SDS011;708;51.442;7.016;2024-02-16T10:23:59;7.25;;;6.95;;
1428;SDS011;708;51.442;7.016;2024-02-16T10:26:27;9.88;;;9.40;;
1428;SDS011;708;51.442;7.016;2024-02-16T10:28:55;7.80;;;7.50;;
1428;SDS011;708;51.442;7.016;2024-02-16T10:31:23;8.13;;;7.82;;
1428;SDS011;708;51.442;7.016;2024-02-16T10:33:56;6.80;;;6.60;;
1428;SDS011;708;51.442;7.016;2024-02-16T10:36:26;9.10;;;8.70;;
1428;SDS011;708;51.442;7.016;2024-02-16T10:38:54;9.05;;;8.75;;
1428;SDS011;708;51.442;7.016;2024-02-16T10:41:22;9.50;;;9.10;;
1428;SDS011;708;51.442;7.016;2024-02-16T10:43:54;7.85;;;7.55;;
1428;SDS011;708;51.442;7.016;2024-02-16T10:46:21;8.57;;;8.27;;
1428;SDS011;708;51.442;7.016;2024-02-16T10:48:49;7.65;;;7.35;;
1428;SDS011;708;51.442;7.016;2024-02-16T10:51:16;7.30;;;7.00;;
1428;SDS011;708;51.442;7.016;2024-02-16T10:53:47;6.60;;;6.40;;
1428;SDS011;708;51.442;7.016;2024-02-16T10:56:16;7.50;;;7.20;;
1428;SDS011;708;51.442;7.016;2024-02-16T10:58:53;6.90;;;6.65;;
1428;SDS011;708;51.442;7.016;2024-02-16T11:01:20;8.67;;;8.37;;
1428;SDS011;708;51.442;7.016;2024-02-16T11:03:47;7.88;;;7.55;;
1428;SDS011;708;51.442;7.016;2024-02-16T11:06:17;8.25;;;7.95;;
1428;SDS011;708;51.442;7.016;2024-02-16T11:08:44;7.82;;;7.53;;
1428;SDS011;708;51.442;7.016;2024-02-16T11:11:23;8.05;;;7.75;;
1428;SDS011;708;51.442;7.016;2024-02-16T11:13:50;7.40;;;7.10;;
1428;SDS011;708;51.442;7.016;2024-02-16T11:16:21;9.75;;;9.30;;
1428;SDS011;708;51.442;7.016;2024-02-16T11:18:49;9.00;;;8.70;;
1428;SDS011;708;51.442;7.016;2024-02-16T11:21:17;8.98;;;8.68;;
1428;SDS011;708;51.442;7.016;2024-02-16T11:23:44;11.10;;;10.70;;
1428;SDS011;708;51.442;7.016;2024-02-16T11:26:11;9.30;;;9.00;;
1428;SDS011;708;51.442;7.016;2024-02-16T11:28:41;9.73;;;9.43;;
1428;SDS011;708;51.442;7.016;2024-02-16T11:31:09;9.48;;;9.18;;
1428;SDS011;708;51.442;7.016;2024-02-16T11:33:36;10.05;;;9.75;;
1428;SDS011;708;51.442;7.016;2024-02-16T11:36:08;7.88;;;7.57;;
1428;SDS011;708;51.442;7.016;2024-02-16T11:38:37;9.07;;;8.77;;
1428;SDS011;708;51.442;7.016;2024-02-16T11:41:05;9.40;;;9.10;;
1428;SDS011;708;51.442;7.016;2024-02-16T11:43:33;9.55;;;9.15;;
1428;SDS011;708;51.442;7.016;2024-02-16T11:46:11;9.18;;;8.88;;
1428;SDS011;708;51.442;7.016;2024-02-16T11:48:39;9.85;;;9.55;;
1428;SDS011;708;51.442;7.016;2024-02-16T11:51:06;8.00;;;7.70;;
1428;SDS011;708;51.442;7.016;2024-02-16T11:53:33;9.80;;;9.50;;
1428;SDS011;708;51.442;7.016;2024-02-16T11:56:00;9.13;;;8.82;;
1428;SDS011;708;51.442;7.016;2024-02-16T11:58:26;8.38;;;8.07;;
1428;SDS011;708;51.442;7.016;2024-02-16T12:00:54;7.40;;;7.10;;
1428;SDS011;708;51.442;7.016;2024-02-16T12:03:26;8.27;;;7.97;;
1428;SDS011;708;51.442;7.016;2024-02-16T12:05:53;9.55;;;9.15;;
1428;SDS011;708;51.442;7.016;2024-02-16T12:08:21;8.10;;;7.80;;
1428;SDS011;708;51.442;7.016;2024-02-16T12:10:49;7.88;;;7.57;;
1428;SDS011;708;51.442;7.016;2024-02-16T12:13:16;9.13;;;8.80;;
1428;SDS011;708;51.442;7.016;2024-02-16T12:15:44;7.90;;;7.60;;
1428;SDS011;708;51.442;7.016;2024-02-16T12:18:18;6.68;;;6.47;;
1428;SDS011;708;51.442;7.016;2024-02-16T12:20:47;8.27;;;7.97;;
1428;SDS011;708;51.442;7.016;2024-02-16T12:23:23;8.85;;;8.55;;
1428;SDS011;708;51.442;7.016;2024-02-16T12:25:49;3.92;;;3.72;;
1428;SDS011;708;51.442;7.016;2024-02-16T12:28:16;9.35;;;8.98;;
1428;SDS011;708;51.442;7.016;2024-02-16T12:30:43;10.60;;;9.98;;
1428;SDS011;708;51.442;7.016;2024-02-16T12:33:10;7.32;;;7.03;;
1428;SDS011;708;51.442;7.016;2024-02-16T12:35:36;8.10;;;7.80;;
1428;SDS011;708;51.442;7.016;2024-02-16T12:38:05;9.10;;;8.80;;
1428;SDS011;708;51.442;7.016;2024-02-16T12:40:32;6.13;;;5.93;;
1428;SDS011;708;51.442;7.016;2024-02-16T12:42:59;9.63;;;8.85;;
1428;SDS011;708;51.442;7.016;2024-02-16T12:45:25;8.00;;;7.70;;
1428;SDS011;708;51.442;7.016;2024-02-16T12:47:52;8.32;;;8.02;;
1428;SDS011;708;51.442;7.016;2024-02-16T12:50:19;8.93;;;8.63;;
1428;SDS011;708;51.442;7.016;2024-02-16T12:52:46;10.00;;;9.70;;
1428;SDS011;708;51.442;7.016;2024-02-16T12:55:14;10.48;;;10.07;;
1428;SDS011;708;51.442;7.016;2024-02-16T12:57:41;8.90;;;8.60;;
1428;SDS011;708;51.442;7.016;2024-02-16T13:00:08;9.70;;;9.40;;
1428;SDS011;708;51.442;7.016;2024-02-16T13:02:36;9.65;;;9.25;;
1428;SDS011;708;51.442;7.016;2024-02-16T13:05:03;10.18;;;9.80;;
1428;SDS011;708;51.442;7.016;2024-02-16T13:07:30;11.10;;;10.60;;
1428;SDS011;708;51.442;7.016;2024-02-16T13:09:57;8.77;;;8.48;;
1428;SDS011;708;51.442;7.016;2024-02-16T13:12:25;7.82;;;7.53;;
1428;SDS011;708;51.442;7.016;2024-02-16T13:14:52;7.75;;;7.45;;
1428;SDS011;708;51.442;7.016;2024-02-16T13:17:19;8.73;;;8.32;;
1428;SDS011;708;51.442;7.016;2024-02-16T13:19:46;9.35;;;8.95;;
1428;SDS011;708;51.442;7.016;2024-02-16T13:22:12;9.88;;;9.50;;
1428;SDS011;708;51.442;7.016;2024-02-16T13:24:39;9.07;;;8.77;;
1428;SDS011;708;51.442;7.016;2024-02-16T13:27:06;8.68;;;8.38;;
1428;SDS011;708;51.442;7.016;2024-02-16T13:29:35;9.25;;;8.95;;
1428;SDS011;708;51.442;7.016;2024-02-16T13:32:02;9.23;;;8.93;;
1428;SDS011;708;51.442;7.016;2024-02-16T13:34:29;8.57;;;8.27;;
1428;SDS011;708;51.442;7.016;2024-02-16T13:36:55;8.45;;;8.15;;
1428;SDS011;708;51.442;7.016;2024-02-16T13:39:22;8.68;;;8.38;;
1428;SDS011;708;51.442;7.016;2024-02-16T13:41:50;8.68;;;8.38;;
1428;SDS011;708;51.442;7.016;2024-02-16T13:44:17;9.55;;;9.15;;
1428;SDS011;708;51.442;7.016;2024-02-16T13:46:46;10.15;;;9.75;;
1428;SDS011;708;51.442;7.016;2024-02-16T13:49:13;10.13;;;9.73;;
1428;SDS011;708;51.442;7.016;2024-02-16T13:51:40;9.10;;;8.80;;
1428;SDS011;708;51.442;7.016;2024-02-16T13:54:07;10.07;;;9.75;;
1428;SDS011;708;51.442;7.016;2024-02-16T13:56:34;10.60;;;10.20;;
1428;SDS011;708;51.442;7.016;2024-02-16T13:59:03;10.85;;;10.45;;
1428;SDS011;708;51.442;7.016;2024-02-16T14:01:32;9.55;;;9.25;;
1428;SDS011;708;51.442;7.016;2024-02-16T14:04:01;9.30;;;8.88;;
1428;SDS011;708;51.442;7.016;2024-02-16T14:06:29;8.48;;;8.18;;
1428;SDS011;708;51.442;7.016;2024-02-16T14:08:56;8.98;;;8.68;;
1428;SDS011;708;51.442;7.016;2024-02-16T14:11:23;7.50;;;7.20;;
1428;SDS011;708;51.442;7.016;2024-02-16T14:13:50;7.13;;;6.82;;
1428;SDS011;708;51.442;7.016;2024-02-16T14:16:17;7.90;;;7.60;;
1428;SDS011;708;51.442;7.016;2024-02-16T14:18:44;7.20;;;6.90;;
1428;SDS011;708;51.442;7.016;2024-02-16T14:21:14;62.78;;;10.93;;
1428;SDS011;708;51.442;7.016;2024-02-16T14:23:41;7.30;;;7.00;;
1428;SDS011;708;51.442;7.016;2024-02-16T14:26:08;8.57;;;8.27;;
1428;SDS011;708;51.442;7.016;2024-02-16T14:28:36;8.45;;;8.10;;
1428;SDS011;708;51.442;7.016;2024-02-16T14:31:03;10.02;;;9.50;;
1428;SDS011;708;51.442;7.016;2024-02-16T14:33:31;7.95;;;7.65;;
1428;SDS011;708;51.442;7.016;2024-02-16T14:35:59;8.65;;;8.35;;
1428;SDS011;708;51.442;7.016;2024-02-16T14:38:27;8.52;;;8.23;;
1428;SDS011;708;51.442;7.016;2024-02-16T14:40:54;10.02;;;9.63;;
1428;SDS011;708;51.442;7.016;2024-02-16T14:43:21;8.40;;;8.10;;
1428;SDS011;708;51.442;7.016;2024-02-16T14:45:48;10.13;;;9.68;;
1428;SDS011;708;51.442;7.016;2024-02-16T14:48:15;8.75;;;8.45;;
1428;SDS011;708;51.442;7.016;2024-02-16T14:50:42;7.65;;;7.35;;
1428;SDS011;708;51.442;7.016;2024-02-16T14:53:09;8.68;;;8.38;;
1428;SDS011;708;51.442;7.016;2024-02-16T14:55:37;8.70;;;8.40;;
1428;SDS011;708;51.442;7.016;2024-02-16T14:58:04;7.93;;;7.63;;
1428;SDS011;708;51.442;7.016;2024-02-16T15:00:32;7.13;;;6.88;;
1428;SDS011;708;51.442;7.016;2024-02-16T15:03:00;7.70;;;7.40;;
1428;SDS011;708;51.442;7.016;2024-02-16T15:05:28;8.02;;;7.72;;
1428;SDS011;708;51.442;7.016;2024-02-16T15:07:55;8.35;;;8.05;;
1428;SDS011;708;51.442;7.016;2024-02-16T15:10:21;8.50;;;8.10;;
1428;SDS011;708;51.442;7.016;2024-02-16T15:12:50;8.05;;;7.75;;
1428;SDS011;708;51.442;7.016;2024-02-16T15:15:17;9.27;;;8.77;;
1428;SDS011;708;51.442;7.016;2024-02-16T15:17:44;7.50;;;7.20;;
1428;SDS011;708;51.442;7.016;2024-02-16T15:20:13;7.50;;;6.90;;
1428;SDS011;708;51.442;7.016;2024-02-16T15:22:41;8.10;;;7.80;;
1428;SDS011;708;51.442;7.016;2024-02-16T15:25:08;7.30;;;7.00;;
1428;SDS011;708;51.442;7.016;2024-02-16T15:27:36;7.93;;;7.63;;
1428;SDS011;708;51.442;7.016;2024-02-16T15:30:05;8.75;;;8.45;;
1428;SDS011;708;51.442;7.016;2024-02-16T15:32:32;6.68;;;6.47;;